SBKP

Viracopos International Airport

Campinas, Brazil
TAF SBKP 182118Z 1900/1924 35010KT 9999 SCT030 TX23/1900Z TN18/1924Z TEMPO 1900/1904 25015KT 6000 TSRA BKN012 FEW040CB BECMG 1905/1907 15012KT 6000 RA BKN015 PROB30 1909/1912 3000 RA BR BKN006 BECMG 1912/1914 15018KT 9999 NSW BKN030 PROB40 1917/1920 7000 SHRA SCT030 FEW045TCU BECMG 1921/1923 13010KT FEW030 RMK PGN
Issued Valid From Valid To
Nov-18 @ 21:18 UTC
(4 hours ago)
Nov-19 @ 00:00 UTC
(58 minutes ago)
Nov-20 @ 00:00 UTC
(in 23 hours)
Nov-19 @ 00:00 to Nov-19 @ 05:00
TAF SBKP 182118Z 1900/1924 35010KT 9999 SCT030 TX23/1900Z TN18/1924Z
Wind Visibility Clouds
350° at 10 knots 10,000+ meters
  • Scattered at 3,000' AGL
Temporary Nov-19 @ 00:00 to Nov-19 @ 04:00
TEMPO 1900/1904 25015KT 6000 TSRA BKN012 FEW040CB
Wind Visibility Clouds Conditions
250° at 15 knots 6,003 meters
  • Broken at 1,200' AGL
  • Few at 4,000' AGL
  • Thunderstorm
  • Rain
Becoming Nov-19 @ 05:00 to Nov-19 @ 12:00
BECMG 1905/1907 15012KT 6000 RA BKN015
Wind Visibility Clouds Conditions
150° at 12 knots 6,003 meters
  • Broken at 1,500' AGL
  • Rain
Probable  (Probability 30%) Nov-19 @ 09:00 to Nov-19 @ 12:00
PROB30 1909/1912 3000 RA BR BKN006
Visibility Clouds Conditions
2,993 meters
  • Broken at 600' AGL
  • Rain
  • Mist
Becoming Nov-19 @ 12:00 to Nov-19 @ 21:00
BECMG 1912/1914 15018KT 9999 NSW BKN030
Wind Visibility Clouds Conditions
150° at 18 knots 10,000+ meters
  • Broken at 3,000' AGL
Probable  (Probability 40%) Nov-19 @ 17:00 to Nov-19 @ 20:00
PROB40 1917/1920 7000 SHRA SCT030 FEW045TCU
Visibility Clouds Conditions
7,001 meters
  • Scattered at 3,000' AGL
  • Few at 4,500' AGL
  • Rain
Becoming Nov-19 @ 21:00 to Nov-20 @ 00:00
BECMG 1921/1923 13010KT FEW030 RMK PGN
Wind Visibility Clouds Conditions
130° at 10 knots 10,000+ meters
  • Few at 3,000' AGL
TAF SBKP 182118Z 1900/1924 35010KT 9999 SCT030 TX23/1900Z TN18/1924Z TEMPO 1900/1904 25015KT 6000 TSRA BKN012 FEW040CB BECMG 1905/1907 15012KT 6000 RA BKN015 PROB30 1909/1912 3000 RA BR BKN006 BECMG 1912/1914 15018KT 9999 NSW BKN030 PROB40 1917/1920 7000 SHRA SCT030 FEW045TCU BECMG 1921/1923 13010KT FEW030 RMK PGN
Issued Nov-18 @ 21:18 UTC
(4 hours ago)
Valid From Nov-19 @ 00:00 UTC
(58 minutes ago)
Valid To Nov-20 @ 00:00 UTC
(in 23 hours)
Nov-19 @ 00:00 - Nov-19 @ 05:00
Wind Visibility
350° at 10 knots 10,000+ meters
Clouds
  • Scattered at 3,000' AGL
Temporary Nov-19 @ 00:00 - Nov-19 @ 04:00
Wind Visibility
250° at 15 knots 6,003 meters
Clouds
  • Broken at 1,200' AGL
  • Few at 4,000' AGL
Conditions
  • Thunderstorm
  • Rain
Becoming Nov-19 @ 05:00 - Nov-19 @ 12:00
Wind Visibility
150° at 12 knots 6,003 meters
Clouds
  • Broken at 1,500' AGL
Conditions
  • Rain
Probability 30% Probable Nov-19 @ 09:00 - Nov-19 @ 12:00
Clouds
  • Broken at 600' AGL
Conditions
  • Rain
  • Mist
Becoming Nov-19 @ 12:00 - Nov-19 @ 21:00
Wind Visibility
150° at 18 knots 10,000+ meters
Clouds
  • Broken at 3,000' AGL
Conditions
Probability 40% Probable Nov-19 @ 17:00 - Nov-19 @ 20:00
Clouds
  • Scattered at 3,000' AGL
  • Few at 4,500' AGL
Conditions
  • Rain
Becoming Nov-19 @ 21:00 - Nov-20 @ 00:00
Wind Visibility
130° at 10 knots 10,000+ meters
Clouds
  • Few at 3,000' AGL
Conditions